createdAt,value
2023-03-22T00:01:10.367Z,16.77
2023-03-22T00:03:39.262Z,15.70
2023-03-22T00:06:08.356Z,16.30
2023-03-22T00:08:36.648Z,13.30
2023-03-22T00:11:05.901Z,17.13
2023-03-22T00:13:35.715Z,15.27
2023-03-22T00:16:06.501Z,15.02
2023-03-22T00:18:34.570Z,15.60
2023-03-22T00:21:02.839Z,15.20
2023-03-22T00:23:31.042Z,15.82
2023-03-22T00:25:59.764Z,15.50
2023-03-22T00:28:28.860Z,15.05
2023-03-22T00:30:59.393Z,16.98
2023-03-22T00:33:31.368Z,17.85
2023-03-22T00:36:01.178Z,16.30
2023-03-22T00:38:42.554Z,16.30
2023-03-22T00:41:14.716Z,16.23
2023-03-22T00:43:43.180Z,15.85
2023-03-22T00:46:12.393Z,14.27
2023-03-22T00:48:42.473Z,15.38
2023-03-22T00:51:11.607Z,13.38
2023-03-22T00:53:42.805Z,14.38
2023-03-22T00:56:15.894Z,14.77
2023-03-22T00:58:56.919Z,13.15
2023-03-22T01:01:25.206Z,16.58
2023-03-22T01:03:54.927Z,15.90
2023-03-22T01:06:23.271Z,16.30
2023-03-22T01:08:55.299Z,15.60
2023-03-22T01:11:24.180Z,15.75
2023-03-22T01:13:52.830Z,15.95
2023-03-22T01:16:21.752Z,18.15
2023-03-22T01:18:50.432Z,18.38
2023-03-22T01:21:20.349Z,17.58
2023-03-22T01:23:48.534Z,20.20
2023-03-22T01:26:17.101Z,19.80
2023-03-22T01:28:45.111Z,24.75
2023-03-22T01:31:13.640Z,21.83
2023-03-22T01:33:41.989Z,23.65
2023-03-22T01:36:10.635Z,20.38
2023-03-22T01:38:40.295Z,21.13
2023-03-22T01:41:08.708Z,21.52
2023-03-22T01:43:40.374Z,21.73
2023-03-22T01:46:09.758Z,19.70
2023-03-22T01:48:42.074Z,22.50
2023-03-22T01:51:14.291Z,20.45
2023-03-22T01:54:00.568Z,21.90
2023-03-22T01:56:32.536Z,20.80
2023-03-22T01:59:01.724Z,21.35
2023-03-22T02:01:40.976Z,22.90
2023-03-22T02:04:13.832Z,22.30
2023-03-22T02:06:42.909Z,21.55
2023-03-22T02:09:22.010Z,25.05
2023-03-22T02:11:56.704Z,23.50
2023-03-22T02:14:50.322Z,24.30
2023-03-22T02:18:06.439Z,23.73
2023-03-22T02:21:02.552Z,22.77
2023-03-22T02:24:02.311Z,26.50
2023-03-22T02:27:16.290Z,25.73
2023-03-22T02:29:48.220Z,24.00
2023-03-22T02:32:49.956Z,24.70
2023-03-22T02:35:31.889Z,22.85
2023-03-22T02:38:19.045Z,26.27
2023-03-22T02:40:53.836Z,25.40
2023-03-22T02:43:38.737Z,26.52
2023-03-22T02:46:12.266Z,25.88
2023-03-22T02:48:46.072Z,23.50
2023-03-22T02:51:20.143Z,24.30
2023-03-22T02:53:54.095Z,24.42
2023-03-22T02:56:30.004Z,23.58
2023-03-22T02:59:01.957Z,24.58
2023-03-22T03:01:37.241Z,22.50
2023-03-22T03:04:08.456Z,22.52
2023-03-22T03:06:41.047Z,24.27
2023-03-22T03:09:09.908Z,23.25
2023-03-22T03:11:39.736Z,22.67
2023-03-22T03:14:07.894Z,23.67
2023-03-22T03:16:36.692Z,22.23
2023-03-22T03:19:16.365Z,24.55
2023-03-22T03:21:52.012Z,22.80
2023-03-22T03:24:28.591Z,25.10
2023-03-22T03:27:05.073Z,22.85
2023-03-22T03:29:40.851Z,24.63
2023-03-22T03:32:15.969Z,23.80
2023-03-22T03:34:49.766Z,26.20
2023-03-22T03:37:22.023Z,25.48
2023-03-22T03:39:55.554Z,26.20
2023-03-22T03:42:29.104Z,24.45
2023-03-22T03:44:58.613Z,27.40
2023-03-22T03:47:29.963Z,26.95
2023-03-22T03:49:58.698Z,27.35
2023-03-22T03:52:27.679Z,27.10
2023-03-22T03:54:56.613Z,26.27
2023-03-22T03:57:31.902Z,27.90
2023-03-22T04:00:00.566Z,30.60
2023-03-22T04:03:07.455Z,29.17
2023-03-22T04:05:55.980Z,32.38
2023-03-22T04:08:24.605Z,30.95
2023-03-22T04:10:53.340Z,31.67
2023-03-22T04:13:25.317Z,31.63
2023-03-22T04:15:58.166Z,30.38
2023-03-22T04:18:29.801Z,29.33
2023-03-22T04:21:01.502Z,27.85
2023-03-22T04:23:34.105Z,30.90
2023-03-22T04:26:02.880Z,29.55
2023-03-22T04:28:55.409Z,27.58
2023-03-22T04:31:24.557Z,24.02
2023-03-22T04:34:06.833Z,24.40
2023-03-22T04:36:51.119Z,24.60
2023-03-22T04:39:25.702Z,25.70
2023-03-22T04:42:02.181Z,27.33
2023-03-22T04:44:32.461Z,27.50
2023-03-22T04:47:00.449Z,24.05
2023-03-22T04:49:29.042Z,41.60
2023-03-22T04:51:57.361Z,49.92
2023-03-22T04:54:39.020Z,27.23
2023-03-22T04:57:07.820Z,25.40
2023-03-22T04:59:44.416Z,22.90
2023-03-22T05:02:12.898Z,24.17
2023-03-22T05:04:44.184Z,23.80
2023-03-22T05:07:28.975Z,23.63
2023-03-22T05:10:00.004Z,22.08
2023-03-22T05:12:28.670Z,22.38
2023-03-22T05:15:09.276Z,22.92
2023-03-22T05:17:39.718Z,20.55
2023-03-22T05:20:10.448Z,21.35
2023-03-22T05:22:41.403Z,22.48
2023-03-22T05:25:12.190Z,23.20
2023-03-22T05:27:44.799Z,26.63
2023-03-22T05:30:33.049Z,24.63
2023-03-22T05:33:11.728Z,24.45
2023-03-22T05:35:45.158Z,23.33
2023-03-22T05:38:13.716Z,26.35
2023-03-22T05:40:46.793Z,25.20
2023-03-22T05:43:15.611Z,27.15
2023-03-22T05:45:49.605Z,25.00
2023-03-22T05:48:33.697Z,21.90
2023-03-22T05:51:03.977Z,23.55
2023-03-22T05:53:34.507Z,24.20
2023-03-22T05:56:11.425Z,24.50
2023-03-22T05:58:43.104Z,22.55
2023-03-22T06:01:16.528Z,22.00
2023-03-22T06:03:44.611Z,24.75
2023-03-22T06:06:21.305Z,23.85
2023-03-22T06:09:14.096Z,24.67
2023-03-22T06:11:44.510Z,22.48
2023-03-22T06:14:12.928Z,21.80
2023-03-22T06:17:00.222Z,20.67
2023-03-22T06:19:28.898Z,21.40
2023-03-22T06:21:58.335Z,24.02
2023-03-22T06:24:28.748Z,22.38
2023-03-22T06:26:56.758Z,21.48
2023-03-22T06:29:25.317Z,20.20
2023-03-22T06:31:55.710Z,21.55
2023-03-22T06:34:26.341Z,22.13
2023-03-22T06:36:55.330Z,17.63
2023-03-22T06:39:26.653Z,18.60
2023-03-22T06:41:55.460Z,16.15
2023-03-22T06:44:24.338Z,16.67
2023-03-22T06:47:06.177Z,17.38
2023-03-22T06:49:59.103Z,15.10
2023-03-22T06:52:39.822Z,15.07
2023-03-22T06:55:10.235Z,14.55
2023-03-22T06:57:38.580Z,13.23
2023-03-22T07:00:08.429Z,14.13
2023-03-22T07:02:37.527Z,14.90
2023-03-22T07:05:30.176Z,16.58
2023-03-22T07:07:58.501Z,13.52
2023-03-22T07:10:27.994Z,14.70
2023-03-22T07:12:56.238Z,12.45
2023-03-22T07:15:24.933Z,15.18
2023-03-22T07:18:02.854Z,15.05
2023-03-22T07:20:37.062Z,16.75
2023-03-22T07:23:06.731Z,12.32
2023-03-22T07:25:42.736Z,11.23
2023-03-22T07:28:33.174Z,10.63
2023-03-22T07:31:03.280Z,8.35
2023-03-22T07:33:37.383Z,7.43
2023-03-22T07:36:08.988Z,7.32
2023-03-22T07:38:38.320Z,5.95
2023-03-22T07:41:10.828Z,6.07
2023-03-22T07:44:07.766Z,6.57
2023-03-22T07:46:48.354Z,5.85
2023-03-22T07:49:21.416Z,5.70
2023-03-22T07:51:59.797Z,4.90
2023-03-22T07:54:33.962Z,4.60
2023-03-22T07:57:04.233Z,4.50
2023-03-22T07:59:39.901Z,4.65
2023-03-22T08:02:10.880Z,5.70
2023-03-22T08:04:45.024Z,4.35
2023-03-22T08:07:28.024Z,5.90
2023-03-22T08:09:58.286Z,5.32
2023-03-22T08:12:28.126Z,5.63
2023-03-22T08:15:07.358Z,5.25
2023-03-22T08:17:35.713Z,5.28
2023-03-22T08:20:08.585Z,5.10
2023-03-22T08:22:48.321Z,5.00
2023-03-22T08:25:29.613Z,5.22
2023-03-22T08:28:06.835Z,5.75
2023-03-22T08:30:35.532Z,4.85
2023-03-22T08:33:05.152Z,5.20
2023-03-22T08:35:33.846Z,7.43
2023-03-22T08:38:03.731Z,6.45
2023-03-22T08:40:41.356Z,6.07
2023-03-22T08:43:09.616Z,6.00
2023-03-22T08:45:38.806Z,6.60
2023-03-22T08:48:12.608Z,6.35
2023-03-22T08:51:07.834Z,7.53
2023-03-22T08:54:00.410Z,5.78
2023-03-22T08:56:48.342Z,7.97
2023-03-22T08:59:31.141Z,6.55
2023-03-22T09:02:26.681Z,6.47
2023-03-22T09:04:55.533Z,6.38
2023-03-22T09:07:24.472Z,6.30
2023-03-22T09:10:06.615Z,6.10
2023-03-22T09:12:38.241Z,6.95
2023-03-22T09:15:09.097Z,5.25
2023-03-22T09:17:40.207Z,6.22
2023-03-22T09:20:12.722Z,5.40
2023-03-22T09:22:44.087Z,5.50
2023-03-22T09:25:17.041Z,5.70
2023-03-22T09:27:48.529Z,5.22
2023-03-22T09:30:17.220Z,6.07
2023-03-22T09:32:45.741Z,8.00
2023-03-22T09:35:16.625Z,5.72
2023-03-22T09:38:00.646Z,5.60
2023-03-22T09:40:32.758Z,5.90
2023-03-22T09:43:06.522Z,6.07
2023-03-22T09:45:41.043Z,5.47
2023-03-22T09:48:17.563Z,5.70
2023-03-22T09:50:48.234Z,4.20
2023-03-22T09:53:19.255Z,4.38
2023-03-22T09:55:56.017Z,4.13
2023-03-22T09:58:29.909Z,4.47
2023-03-22T10:01:01.479Z,4.07
2023-03-22T10:03:57.423Z,3.20
2023-03-22T10:06:29.317Z,3.33
2023-03-22T10:09:07.092Z,3.40
2023-03-22T10:11:46.407Z,2.90
2023-03-22T10:14:26.369Z,2.10
2023-03-22T10:16:57.844Z,2.22
2023-03-22T10:19:32.284Z,2.08
2023-03-22T10:22:03.392Z,1.70
2023-03-22T10:24:34.519Z,1.92
2023-03-22T10:27:05.036Z,2.53
2023-03-22T10:29:38.917Z,2.80
2023-03-22T10:32:16.092Z,2.15
2023-03-22T10:34:45.166Z,3.75
2023-03-22T10:37:17.714Z,2.17
2023-03-22T10:39:50.019Z,2.20
2023-03-22T10:42:25.117Z,1.52
2023-03-22T10:44:57.453Z,2.30
2023-03-22T10:47:33.332Z,2.65
2023-03-22T10:50:04.469Z,2.50
2023-03-22T10:52:41.303Z,2.35
2023-03-22T10:55:15.780Z,2.55
2023-03-22T10:57:52.901Z,3.40
2023-03-22T11:00:24.232Z,2.28
2023-03-22T11:02:54.900Z,2.42
2023-03-22T11:05:26.810Z,1.83
2023-03-22T11:07:55.800Z,2.42
2023-03-22T11:10:28.605Z,3.15
2023-03-22T11:13:14.955Z,3.28
2023-03-22T11:15:52.978Z,3.10
2023-03-22T11:18:22.031Z,3.08
2023-03-22T11:21:00.792Z,2.90
2023-03-22T11:23:33.260Z,4.10
2023-03-22T11:26:08.195Z,2.83
2023-03-22T11:28:44.137Z,3.15
2023-03-22T11:31:13.847Z,3.08
2023-03-22T11:33:55.923Z,2.67
2023-03-22T11:36:25.074Z,3.10
2023-03-22T11:38:59.015Z,3.03
2023-03-22T11:41:29.588Z,3.08
2023-03-22T11:44:02.455Z,2.60
2023-03-22T11:46:32.209Z,2.95
2023-03-22T11:49:04.405Z,2.50
2023-03-22T11:51:36.201Z,3.28
2023-03-22T11:58:59.772Z,2.80
2023-03-22T12:01:37.433Z,2.58
2023-03-22T12:04:09.996Z,3.03
2023-03-22T12:06:40.925Z,3.20
2023-03-22T12:09:20.984Z,2.40
2023-03-22T12:11:52.698Z,2.42
2023-03-22T12:14:24.625Z,2.70
2023-03-22T12:16:59.963Z,2.97
2023-03-22T12:19:43.658Z,3.53
2023-03-22T12:22:17.193Z,2.38
2023-03-22T12:24:45.578Z,2.95
2023-03-22T12:27:19.197Z,2.65
2023-03-22T12:29:51.726Z,3.10
2023-03-22T12:32:26.859Z,3.55
2023-03-22T12:35:09.264Z,3.63
2023-03-22T12:37:44.584Z,3.47
2023-03-22T12:40:23.091Z,4.13
2023-03-22T12:43:01.806Z,3.20
2023-03-22T12:45:33.046Z,3.20
2023-03-22T12:48:09.256Z,3.38
2023-03-22T12:50:43.302Z,3.05
2023-03-22T12:53:16.386Z,3.15
2023-03-22T12:55:47.062Z,3.00
2023-03-22T12:58:23.778Z,2.90
2023-03-22T13:00:55.105Z,3.65
2023-03-22T13:03:30.015Z,3.92
2023-03-22T13:06:04.666Z,3.63
2023-03-22T13:09:18.695Z,3.42
2023-03-22T13:11:48.852Z,3.25
2023-03-22T13:14:50.473Z,2.42
2023-03-22T13:17:38.978Z,2.40
2023-03-22T13:20:28.341Z,2.15
2023-03-22T13:23:16.057Z,2.40
2023-03-22T13:26:03.566Z,1.52
2023-03-22T13:28:37.254Z,2.33
2023-03-22T13:31:06.487Z,2.50
2023-03-22T13:33:36.932Z,2.70
2023-03-22T13:36:23.960Z,1.80
2023-03-22T13:38:57.188Z,2.08
2023-03-22T13:41:29.512Z,2.78
2023-03-22T13:43:59.335Z,2.63
2023-03-22T13:46:46.693Z,2.13
2023-03-22T13:49:28.958Z,2.95
2023-03-22T13:52:02.439Z,2.20
2023-03-22T13:54:37.642Z,2.50
2023-03-22T13:57:06.245Z,2.30
2023-03-22T14:00:12.102Z,2.47
2023-03-22T14:02:43.965Z,2.30
2023-03-22T14:05:17.359Z,1.80
2023-03-22T14:07:49.894Z,2.45
2023-03-22T14:10:22.171Z,2.25
2023-03-22T14:12:53.345Z,2.30
2023-03-22T14:15:25.406Z,2.30
2023-03-22T14:17:59.632Z,2.40
2023-03-22T14:20:33.545Z,2.15
